sensor_id;sensor_type;location;lat;lon;timestamp;P1;durP1;ratioP1;P2;durP2;ratioP2
60436;SDS011;46289;51.992;4.498;2023-01-28T00:00:51;16.13;;;6.90;;
60436;SDS011;46289;51.992;4.498;2023-01-28T00:02:56;16.95;;;7.55;;
60436;SDS011;46289;51.992;4.498;2023-01-28T00:05:01;17.33;;;7.53;;
60436;SDS011;46289;51.992;4.498;2023-01-28T00:07:06;14.75;;;6.88;;
60436;SDS011;46289;51.992;4.498;2023-01-28T00:09:11;17.10;;;6.72;;
60436;SDS011;46289;51.992;4.498;2023-01-28T00:11:16;17.23;;;7.15;;
60436;SDS011;46289;51.992;4.498;2023-01-28T00:13:25;14.40;;;5.95;;
60436;SDS011;46289;51.992;4.498;2023-01-28T00:15:30;14.82;;;6.38;;
60436;SDS011;46289;51.992;4.498;2023-01-28T00:17:35;13.15;;;5.35;;
60436;SDS011;46289;51.992;4.498;2023-01-28T00:19:50;15.63;;;7.13;;
60436;SDS011;46289;51.992;4.498;2023-01-28T00:21:55;16.55;;;6.72;;
60436;SDS011;46289;51.992;4.498;2023-01-28T00:24:00;16.02;;;6.28;;
60436;SDS011;46289;51.992;4.498;2023-01-28T00:26:09;14.63;;;6.43;;
60436;SDS011;46289;51.992;4.498;2023-01-28T00:28:16;14.05;;;6.13;;
60436;SDS011;46289;51.992;4.498;2023-01-28T00:30:23;17.27;;;7.20;;
60436;SDS011;46289;51.992;4.498;2023-01-28T00:32:28;15.27;;;7.07;;
60436;SDS011;46289;51.992;4.498;2023-01-28T00:34:33;15.07;;;7.30;;
60436;SDS011;46289;51.992;4.498;2023-01-28T00:36:38;17.52;;;7.40;;
60436;SDS011;46289;51.992;4.498;2023-01-28T00:38:47;16.40;;;7.25;;
60436;SDS011;46289;51.992;4.498;2023-01-28T00:40:53;14.52;;;6.88;;
60436;SDS011;46289;51.992;4.498;2023-01-28T00:42:58;17.00;;;7.38;;
60436;SDS011;46289;51.992;4.498;2023-01-28T00:45:06;15.07;;;6.53;;
60436;SDS011;46289;51.992;4.498;2023-01-28T00:47:19;16.67;;;7.63;;
60436;SDS011;46289;51.992;4.498;2023-01-28T00:49:24;17.88;;;7.20;;
60436;SDS011;46289;51.992;4.498;2023-01-28T00:51:29;16.92;;;6.63;;
60436;SDS011;46289;51.992;4.498;2023-01-28T00:53:36;15.52;;;7.35;;
60436;SDS011;46289;51.992;4.498;2023-01-28T00:55:44;13.68;;;6.30;;
60436;SDS011;46289;51.992;4.498;2023-01-28T00:57:49;14.77;;;6.47;;
60436;SDS011;46289;51.992;4.498;2023-01-28T00:59:54;15.95;;;7.50;;
60436;SDS011;46289;51.992;4.498;2023-01-28T01:01:58;18.48;;;7.78;;
60436;SDS011;46289;51.992;4.498;2023-01-28T01:04:18;17.23;;;7.53;;
60436;SDS011;46289;51.992;4.498;2023-01-28T01:06:28;17.15;;;7.18;;
60436;SDS011;46289;51.992;4.498;2023-01-28T01:08:35;15.15;;;7.53;;
60436;SDS011;46289;51.992;4.498;2023-01-28T01:10:52;17.25;;;7.05;;
60436;SDS011;46289;51.992;4.498;2023-01-28T01:13:02;18.30;;;7.05;;
60436;SDS011;46289;51.992;4.498;2023-01-28T01:15:10;19.67;;;7.95;;
60436;SDS011;46289;51.992;4.498;2023-01-28T01:17:16;17.92;;;7.90;;
60436;SDS011;46289;51.992;4.498;2023-01-28T01:19:24;18.08;;;7.93;;
60436;SDS011;46289;51.992;4.498;2023-01-28T01:21:30;17.52;;;7.45;;
60436;SDS011;46289;51.992;4.498;2023-01-28T01:23:35;16.95;;;7.50;;
60436;SDS011;46289;51.992;4.498;2023-01-28T01:25:41;15.75;;;6.90;;
60436;SDS011;46289;51.992;4.498;2023-01-28T01:27:47;17.23;;;7.82;;
60436;SDS011;46289;51.992;4.498;2023-01-28T01:29:53;17.40;;;7.88;;
60436;SDS011;46289;51.992;4.498;2023-01-28T01:31:59;16.33;;;7.93;;
60436;SDS011;46289;51.992;4.498;2023-01-28T01:34:05;14.40;;;7.00;;
60436;SDS011;46289;51.992;4.498;2023-01-28T01:36:12;17.60;;;8.15;;
60436;SDS011;46289;51.992;4.498;2023-01-28T01:38:22;19.40;;;8.75;;
60436;SDS011;46289;51.992;4.498;2023-01-28T01:40:28;22.92;;;8.82;;
60436;SDS011;46289;51.992;4.498;2023-01-28T01:42:34;20.55;;;9.23;;
60436;SDS011;46289;51.992;4.498;2023-01-28T01:44:52;20.02;;;9.15;;
60436;SDS011;46289;51.992;4.498;2023-01-28T01:46:59;18.88;;;9.05;;
60436;SDS011;46289;51.992;4.498;2023-01-28T01:49:10;18.77;;;8.75;;
60436;SDS011;46289;51.992;4.498;2023-01-28T01:51:22;17.48;;;8.55;;
60436;SDS011;46289;51.992;4.498;2023-01-28T01:53:29;21.77;;;8.38;;
60436;SDS011;46289;51.992;4.498;2023-01-28T01:55:37;19.95;;;8.35;;
60436;SDS011;46289;51.992;4.498;2023-01-28T01:57:50;19.15;;;8.57;;
60436;SDS011;46289;51.992;4.498;2023-01-28T01:59:56;17.23;;;8.30;;
60436;SDS011;46289;51.992;4.498;2023-01-28T02:02:07;21.05;;;8.63;;
60436;SDS011;46289;51.992;4.498;2023-01-28T02:04:14;20.67;;;9.00;;
60436;SDS011;46289;51.992;4.498;2023-01-28T02:06:26;17.15;;;8.57;;
60436;SDS011;46289;51.992;4.498;2023-01-28T02:08:31;16.27;;;7.07;;
60436;SDS011;46289;51.992;4.498;2023-01-28T02:10:36;15.77;;;8.00;;
60436;SDS011;46289;51.992;4.498;2023-01-28T02:12:42;15.43;;;7.47;;
60436;SDS011;46289;51.992;4.498;2023-01-28T02:14:53;16.33;;;7.30;;
60436;SDS011;46289;51.992;4.498;2023-01-28T02:17:01;17.17;;;7.78;;
60436;SDS011;46289;51.992;4.498;2023-01-28T02:19:06;17.80;;;7.45;;
60436;SDS011;46289;51.992;4.498;2023-01-28T02:21:23;16.15;;;7.40;;
60436;SDS011;46289;51.992;4.498;2023-01-28T02:26:30;15.85;;;7.63;;
60436;SDS011;46289;51.992;4.498;2023-01-28T02:28:56;16.20;;;6.97;;
60436;SDS011;46289;51.992;4.498;2023-01-28T02:31:07;15.45;;;7.45;;
60436;SDS011;46289;51.992;4.498;2023-01-28T02:33:20;13.75;;;7.10;;
60436;SDS011;46289;51.992;4.498;2023-01-28T02:35:30;15.95;;;6.90;;
60436;SDS011;46289;51.992;4.498;2023-01-28T02:37:39;12.98;;;6.38;;
60436;SDS011;46289;51.992;4.498;2023-01-28T02:39:50;17.13;;;7.97;;
60436;SDS011;46289;51.992;4.498;2023-01-28T02:41:58;15.73;;;7.70;;
60436;SDS011;46289;51.992;4.498;2023-01-28T02:44:09;17.70;;;6.90;;
60436;SDS011;46289;51.992;4.498;2023-01-28T02:46:16;16.45;;;6.88;;
60436;SDS011;46289;51.992;4.498;2023-01-28T02:48:37;15.55;;;7.20;;
60436;SDS011;46289;51.992;4.498;2023-01-28T02:50:44;17.98;;;7.10;;
60436;SDS011;46289;51.992;4.498;2023-01-28T02:52:55;17.33;;;7.25;;
60436;SDS011;46289;51.992;4.498;2023-01-28T02:55:25;16.73;;;7.03;;
60436;SDS011;46289;51.992;4.498;2023-01-28T02:57:37;12.85;;;6.53;;
60436;SDS011;46289;51.992;4.498;2023-01-28T02:59:50;16.23;;;7.80;;
60436;SDS011;46289;51.992;4.498;2023-01-28T03:02:00;12.52;;;5.55;;
60436;SDS011;46289;51.992;4.498;2023-01-28T03:04:11;14.65;;;7.07;;
60436;SDS011;46289;51.992;4.498;2023-01-28T03:06:21;13.55;;;6.75;;
60436;SDS011;46289;51.992;4.498;2023-01-28T03:08:30;14.10;;;6.53;;
60436;SDS011;46289;51.992;4.498;2023-01-28T03:10:50;14.65;;;6.47;;
60436;SDS011;46289;51.992;4.498;2023-01-28T03:13:08;16.45;;;6.72;;
60436;SDS011;46289;51.992;4.498;2023-01-28T03:15:30;14.55;;;6.28;;
60436;SDS011;46289;51.992;4.498;2023-01-28T03:17:51;12.68;;;6.20;;
60436;SDS011;46289;51.992;4.498;2023-01-28T03:20:11;12.80;;;6.85;;
60436;SDS011;46289;51.992;4.498;2023-01-28T03:22:29;12.50;;;6.03;;
60436;SDS011;46289;51.992;4.498;2023-01-28T03:24:49;14.88;;;6.97;;
60436;SDS011;46289;51.992;4.498;2023-01-28T03:27:09;13.02;;;6.47;;
60436;SDS011;46289;51.992;4.498;2023-01-28T03:29:29;11.20;;;5.80;;
60436;SDS011;46289;51.992;4.498;2023-01-28T03:31:50;12.90;;;6.25;;
60436;SDS011;46289;51.992;4.498;2023-01-28T03:34:08;12.88;;;5.90;;
60436;SDS011;46289;51.992;4.498;2023-01-28T03:36:26;10.68;;;5.07;;
60436;SDS011;46289;51.992;4.498;2023-01-28T03:38:47;11.95;;;5.65;;
60436;SDS011;46289;51.992;4.498;2023-01-28T03:40:54;12.90;;;5.55;;
60436;SDS011;46289;51.992;4.498;2023-01-28T03:43:00;10.63;;;4.70;;
60436;SDS011;46289;51.992;4.498;2023-01-28T03:45:06;12.20;;;5.80;;
60436;SDS011;46289;51.992;4.498;2023-01-28T03:47:12;12.40;;;5.20;;
60436;SDS011;46289;51.992;4.498;2023-01-28T03:49:21;10.43;;;4.45;;
60436;SDS011;46289;51.992;4.498;2023-01-28T03:51:26;8.40;;;4.60;;
60436;SDS011;46289;51.992;4.498;2023-01-28T03:53:31;10.27;;;4.45;;
60436;SDS011;46289;51.992;4.498;2023-01-28T03:55:36;10.45;;;5.20;;
60436;SDS011;46289;51.992;4.498;2023-01-28T03:57:41;11.10;;;4.68;;
60436;SDS011;46289;51.992;4.498;2023-01-28T03:59:51;12.10;;;6.20;;
60436;SDS011;46289;51.992;4.498;2023-01-28T04:01:56;11.55;;;5.57;;
60436;SDS011;46289;51.992;4.498;2023-01-28T04:04:06;10.52;;;5.18;;
60436;SDS011;46289;51.992;4.498;2023-01-28T04:06:24;11.05;;;4.88;;
60436;SDS011;46289;51.992;4.498;2023-01-28T04:08:29;11.20;;;5.15;;
60436;SDS011;46289;51.992;4.498;2023-01-28T04:10:34;13.23;;;5.75;;
60436;SDS011;46289;51.992;4.498;2023-01-28T04:12:39;15.32;;;6.28;;
60436;SDS011;46289;51.992;4.498;2023-01-28T04:14:47;12.73;;;5.60;;
60436;SDS011;46289;51.992;4.498;2023-01-28T04:16:53;13.38;;;6.00;;
60436;SDS011;46289;51.992;4.498;2023-01-28T04:18:58;10.93;;;5.50;;
60436;SDS011;46289;51.992;4.498;2023-01-28T04:21:07;12.77;;;5.03;;
60436;SDS011;46289;51.992;4.498;2023-01-28T04:23:12;11.70;;;5.43;;
60436;SDS011;46289;51.992;4.498;2023-01-28T04:25:18;11.15;;;5.40;;
60436;SDS011;46289;51.992;4.498;2023-01-28T04:27:23;14.32;;;5.65;;
60436;SDS011;46289;51.992;4.498;2023-01-28T04:29:28;10.90;;;5.93;;
60436;SDS011;46289;51.992;4.498;2023-01-28T04:31:33;9.95;;;5.32;;
60436;SDS011;46289;51.992;4.498;2023-01-28T04:33:39;13.32;;;5.40;;
60436;SDS011;46289;51.992;4.498;2023-01-28T04:35:46;11.00;;;5.25;;
60436;SDS011;46289;51.992;4.498;2023-01-28T04:37:54;13.05;;;5.25;;
60436;SDS011;46289;51.992;4.498;2023-01-28T04:39:59;11.35;;;4.70;;
60436;SDS011;46289;51.992;4.498;2023-01-28T04:42:07;12.73;;;5.18;;
60436;SDS011;46289;51.992;4.498;2023-01-28T04:44:12;8.55;;;4.18;;
60436;SDS011;46289;51.992;4.498;2023-01-28T04:46:17;14.48;;;5.70;;
60436;SDS011;46289;51.992;4.498;2023-01-28T04:48:23;9.85;;;5.47;;
60436;SDS011;46289;51.992;4.498;2023-01-28T04:50:30;10.38;;;4.82;;
60436;SDS011;46289;51.992;4.498;2023-01-28T04:52:35;9.13;;;4.70;;
60436;SDS011;46289;51.992;4.498;2023-01-28T04:54:43;9.32;;;4.85;;
60436;SDS011;46289;51.992;4.498;2023-01-28T04:56:48;10.95;;;5.00;;
60436;SDS011;46289;51.992;4.498;2023-01-28T04:58:53;12.18;;;5.60;;
60436;SDS011;46289;51.992;4.498;2023-01-28T05:00:58;9.80;;;5.22;;
60436;SDS011;46289;51.992;4.498;2023-01-28T05:03:04;9.80;;;5.30;;
60436;SDS011;46289;51.992;4.498;2023-01-28T05:05:09;12.45;;;5.53;;
60436;SDS011;46289;51.992;4.498;2023-01-28T05:07:16;11.98;;;5.22;;
60436;SDS011;46289;51.992;4.498;2023-01-28T05:09:21;9.88;;;4.90;;
60436;SDS011;46289;51.992;4.498;2023-01-28T05:11:28;10.68;;;5.05;;
60436;SDS011;46289;51.992;4.498;2023-01-28T05:13:33;10.68;;;4.93;;
60436;SDS011;46289;51.992;4.498;2023-01-28T05:15:38;12.48;;;5.38;;
60436;SDS011;46289;51.992;4.498;2023-01-28T05:17:46;13.40;;;5.45;;
60436;SDS011;46289;51.992;4.498;2023-01-28T05:19:51;12.75;;;4.82;;
60436;SDS011;46289;51.992;4.498;2023-01-28T05:21:57;11.80;;;5.15;;
60436;SDS011;46289;51.992;4.498;2023-01-28T05:24:03;12.20;;;5.85;;
60436;SDS011;46289;51.992;4.498;2023-01-28T05:26:08;10.60;;;4.95;;
60436;SDS011;46289;51.992;4.498;2023-01-28T05:28:18;9.75;;;5.05;;
60436;SDS011;46289;51.992;4.498;2023-01-28T05:30:23;15.05;;;5.75;;
60436;SDS011;46289;51.992;4.498;2023-01-28T05:32:28;11.93;;;5.03;;
60436;SDS011;46289;51.992;4.498;2023-01-28T05:34:33;9.73;;;4.97;;
60436;SDS011;46289;51.992;4.498;2023-01-28T05:36:38;11.07;;;4.95;;
60436;SDS011;46289;51.992;4.498;2023-01-28T05:38:44;10.88;;;5.25;;
60436;SDS011;46289;51.992;4.498;2023-01-28T05:40:49;11.15;;;5.45;;
60436;SDS011;46289;51.992;4.498;2023-01-28T05:42:53;10.68;;;5.05;;
60436;SDS011;46289;51.992;4.498;2023-01-28T05:45:02;8.35;;;4.15;;
60436;SDS011;46289;51.992;4.498;2023-01-28T05:47:08;10.85;;;4.88;;
60436;SDS011;46289;51.992;4.498;2023-01-28T05:49:12;9.20;;;4.80;;
60436;SDS011;46289;51.992;4.498;2023-01-28T05:51:17;10.25;;;4.95;;
60436;SDS011;46289;51.992;4.498;2023-01-28T05:53:22;10.95;;;5.20;;
60436;SDS011;46289;51.992;4.498;2023-01-28T05:55:27;10.93;;;4.90;;
60436;SDS011;46289;51.992;4.498;2023-01-28T05:57:35;10.13;;;4.97;;
60436;SDS011;46289;51.992;4.498;2023-01-28T05:59:40;12.13;;;4.90;;
60436;SDS011;46289;51.992;4.498;2023-01-28T06:01:48;11.63;;;4.68;;
60436;SDS011;46289;51.992;4.498;2023-01-28T06:03:53;10.88;;;4.93;;
60436;SDS011;46289;51.992;4.498;2023-01-28T06:06:00;11.98;;;5.15;;
60436;SDS011;46289;51.992;4.498;2023-01-28T06:08:05;9.63;;;4.65;;
60436;SDS011;46289;51.992;4.498;2023-01-28T06:10:13;14.60;;;5.70;;
60436;SDS011;46289;51.992;4.498;2023-01-28T06:12:21;11.13;;;5.55;;
60436;SDS011;46289;51.992;4.498;2023-01-28T06:14:26;9.93;;;5.25;;
60436;SDS011;46289;51.992;4.498;2023-01-28T06:16:31;13.40;;;5.53;;
60436;SDS011;46289;51.992;4.498;2023-01-28T06:18:38;10.80;;;5.10;;
60436;SDS011;46289;51.992;4.498;2023-01-28T06:20:47;10.55;;;5.35;;
60436;SDS011;46289;51.992;4.498;2023-01-28T06:22:52;9.57;;;4.90;;
60436;SDS011;46289;51.992;4.498;2023-01-28T06:24:58;10.07;;;4.53;;
60436;SDS011;46289;51.992;4.498;2023-01-28T06:27:04;13.13;;;5.25;;
60436;SDS011;46289;51.992;4.498;2023-01-28T06:29:09;13.20;;;5.78;;
60436;SDS011;46289;51.992;4.498;2023-01-28T06:31:14;9.95;;;5.03;;
60436;SDS011;46289;51.992;4.498;2023-01-28T06:33:19;11.50;;;4.93;;
60436;SDS011;46289;51.992;4.498;2023-01-28T06:35:28;11.57;;;5.05;;
60436;SDS011;46289;51.992;4.498;2023-01-28T06:37:35;10.60;;;5.68;;
60436;SDS011;46289;51.992;4.498;2023-01-28T06:39:40;9.68;;;4.63;;
60436;SDS011;46289;51.992;4.498;2023-01-28T06:41:46;10.45;;;5.28;;
60436;SDS011;46289;51.992;4.498;2023-01-28T06:43:51;12.10;;;5.80;;
60436;SDS011;46289;51.992;4.498;2023-01-28T06:45:56;11.32;;;5.88;;
60436;SDS011;46289;51.992;4.498;2023-01-28T06:48:01;12.05;;;5.55;;
60436;SDS011;46289;51.992;4.498;2023-01-28T06:50:09;12.00;;;5.28;;
60436;SDS011;46289;51.992;4.498;2023-01-28T06:52:20;10.70;;;5.05;;
60436;SDS011;46289;51.992;4.498;2023-01-28T06:54:25;11.77;;;4.95;;
60436;SDS011;46289;51.992;4.498;2023-01-28T06:56:31;14.45;;;6.38;;
60436;SDS011;46289;51.992;4.498;2023-01-28T06:58:36;10.77;;;5.30;;
60436;SDS011;46289;51.992;4.498;2023-01-28T07:00:41;10.35;;;4.95;;
60436;SDS011;46289;51.992;4.498;2023-01-28T07:02:46;12.18;;;5.20;;
60436;SDS011;46289;51.992;4.498;2023-01-28T07:04:51;12.07;;;5.60;;
60436;SDS011;46289;51.992;4.498;2023-01-28T07:06:56;12.75;;;6.13;;
60436;SDS011;46289;51.992;4.498;2023-01-28T07:09:04;9.98;;;5.20;;
60436;SDS011;46289;51.992;4.498;2023-01-28T07:11:08;13.18;;;5.85;;
60436;SDS011;46289;51.992;4.498;2023-01-28T07:13:14;11.43;;;5.80;;
60436;SDS011;46289;51.992;4.498;2023-01-28T07:15:19;15.00;;;5.55;;
60436;SDS011;46289;51.992;4.498;2023-01-28T07:17:24;11.90;;;5.72;;
60436;SDS011;46289;51.992;4.498;2023-01-28T07:19:29;12.23;;;5.82;;
60436;SDS011;46289;51.992;4.498;2023-01-28T07:21:34;15.52;;;5.93;;
60436;SDS011;46289;51.992;4.498;2023-01-28T07:23:39;14.55;;;6.75;;
60436;SDS011;46289;51.992;4.498;2023-01-28T07:25:49;14.95;;;6.45;;
60436;SDS011;46289;51.992;4.498;2023-01-28T07:27:54;13.20;;;6.20;;
60436;SDS011;46289;51.992;4.498;2023-01-28T07:29:59;12.05;;;5.88;;
60436;SDS011;46289;51.992;4.498;2023-01-28T07:32:04;15.27;;;6.70;;
60436;SDS011;46289;51.992;4.498;2023-01-28T07:34:09;13.68;;;5.72;;
60436;SDS011;46289;51.992;4.498;2023-01-28T07:36:14;15.52;;;6.90;;
60436;SDS011;46289;51.992;4.498;2023-01-28T07:38:19;16.38;;;7.13;;
60436;SDS011;46289;51.992;4.498;2023-01-28T07:40:27;15.70;;;6.70;;
60436;SDS011;46289;51.992;4.498;2023-01-28T07:42:35;14.27;;;6.57;;
60436;SDS011;46289;51.992;4.498;2023-01-28T07:44:41;18.02;;;7.72;;
60436;SDS011;46289;51.992;4.498;2023-01-28T07:46:46;16.65;;;7.05;;
60436;SDS011;46289;51.992;4.498;2023-01-28T07:48:51;19.90;;;7.28;;
60436;SDS011;46289;51.992;4.498;2023-01-28T07:50:57;15.15;;;6.75;;
60436;SDS011;46289;51.992;4.498;2023-01-28T07:53:02;14.85;;;7.32;;
60436;SDS011;46289;51.992;4.498;2023-01-28T07:55:08;16.13;;;7.55;;
60436;SDS011;46289;51.992;4.498;2023-01-28T07:57:18;14.85;;;6.88;;
60436;SDS011;46289;51.992;4.498;2023-01-28T07:59:26;14.93;;;7.00;;
60436;SDS011;46289;51.992;4.498;2023-01-28T08:01:31;17.20;;;7.53;;
60436;SDS011;46289;51.992;4.498;2023-01-28T08:03:36;16.23;;;7.22;;
60436;SDS011;46289;51.992;4.498;2023-01-28T08:05:45;16.33;;;7.50;;
60436;SDS011;46289;51.992;4.498;2023-01-28T08:07:52;19.58;;;7.40;;
60436;SDS011;46289;51.992;4.498;2023-01-28T08:09:57;20.48;;;7.63;;
60436;SDS011;46289;51.992;4.498;2023-01-28T08:12:02;16.98;;;6.70;;
60436;SDS011;46289;51.992;4.498;2023-01-28T08:14:08;15.65;;;6.15;;
60436;SDS011;46289;51.992;4.498;2023-01-28T08:16:17;19.30;;;7.55;;
60436;SDS011;46289;51.992;4.498;2023-01-28T08:23:12;23.25;;;7.63;;
60436;SDS011;46289;51.992;4.498;2023-01-28T08:25:18;20.42;;;7.22;;
60436;SDS011;46289;51.992;4.498;2023-01-28T08:27:23;19.35;;;8.10;;
60436;SDS011;46289;51.992;4.498;2023-01-28T08:29:28;19.70;;;7.82;;
60436;SDS011;46289;51.992;4.498;2023-01-28T08:31:38;24.10;;;8.45;;
60436;SDS011;46289;51.992;4.498;2023-01-28T08:33:45;21.80;;;8.32;;
60436;SDS011;46289;51.992;4.498;2023-01-28T08:35:51;19.77;;;8.02;;
60436;SDS011;46289;51.992;4.498;2023-01-28T08:37:58;18.98;;;8.07;;
60436;SDS011;46289;51.992;4.498;2023-01-28T08:40:05;23.50;;;8.50;;
60436;SDS011;46289;51.992;4.498;2023-01-28T08:42:16;20.23;;;7.60;;
60436;SDS011;46289;51.992;4.498;2023-01-28T08:44:21;19.85;;;7.38;;
60436;SDS011;46289;51.992;4.498;2023-01-28T08:46:26;19.60;;;7.93;;
60436;SDS011;46289;51.992;4.498;2023-01-28T08:48:34;19.92;;;8.13;;
60436;SDS011;46289;51.992;4.498;2023-01-28T08:50:39;22.17;;;8.38;;
60436;SDS011;46289;51.992;4.498;2023-01-28T08:52:44;22.20;;;8.02;;
60436;SDS011;46289;51.992;4.498;2023-01-28T08:54:51;17.77;;;8.25;;
60436;SDS011;46289;51.992;4.498;2023-01-28T08:56:57;22.50;;;7.93;;
60436;SDS011;46289;51.992;4.498;2023-01-28T08:59:02;19.92;;;7.70;;
60436;SDS011;46289;51.992;4.498;2023-01-28T09:01:08;19.60;;;7.68;;
60436;SDS011;46289;51.992;4.498;2023-01-28T09:03:16;20.75;;;7.72;;
60436;SDS011;46289;51.992;4.498;2023-01-28T09:05:27;23.20;;;8.27;;
60436;SDS011;46289;51.992;4.498;2023-01-28T09:07:34;22.90;;;9.27;;
60436;SDS011;46289;51.992;4.498;2023-01-28T09:09:40;20.42;;;7.85;;
60436;SDS011;46289;51.992;4.498;2023-01-28T09:11:51;20.55;;;8.15;;
60436;SDS011;46289;51.992;4.498;2023-01-28T09:13:56;21.77;;;9.30;;
60436;SDS011;46289;51.992;4.498;2023-01-28T09:16:05;19.90;;;7.38;;
60436;SDS011;46289;51.992;4.498;2023-01-28T09:18:16;20.15;;;8.20;;
60436;SDS011;46289;51.992;4.498;2023-01-28T09:21:07;24.23;;;7.82;;
60436;SDS011;46289;51.992;4.498;2023-01-28T09:23:13;19.80;;;7.80;;
60436;SDS011;46289;51.992;4.498;2023-01-28T09:25:20;22.98;;;8.57;;
60436;SDS011;46289;51.992;4.498;2023-01-28T09:27:25;24.00;;;8.77;;
60436;SDS011;46289;51.992;4.498;2023-01-28T09:29:32;26.33;;;8.98;;
60436;SDS011;46289;51.992;4.498;2023-01-28T09:31:38;25.65;;;8.23;;
60436;SDS011;46289;51.992;4.498;2023-01-28T09:33:46;20.95;;;9.07;;
60436;SDS011;46289;51.992;4.498;2023-01-28T09:35:58;23.92;;;9.57;;
60436;SDS011;46289;51.992;4.498;2023-01-28T09:38:09;17.75;;;7.65;;
60436;SDS011;46289;51.992;4.498;2023-01-28T09:40:14;23.42;;;8.73;;
60436;SDS011;46289;51.992;4.498;2023-01-28T09:42:26;22.80;;;9.00;;
60436;SDS011;46289;51.992;4.498;2023-01-28T09:44:47;21.38;;;7.25;;
60436;SDS011;46289;51.992;4.498;2023-01-28T09:47:00;21.27;;;8.93;;
60436;SDS011;46289;51.992;4.498;2023-01-28T09:49:10;22.75;;;8.20;;
60436;SDS011;46289;51.992;4.498;2023-01-28T09:51:26;21.27;;;8.95;;
60436;SDS011;46289;51.992;4.498;2023-01-28T09:53:38;25.60;;;8.35;;
60436;SDS011;46289;51.992;4.498;2023-01-28T09:55:52;21.02;;;7.70;;
60436;SDS011;46289;51.992;4.498;2023-01-28T09:57:59;19.42;;;7.68;;
60436;SDS011;46289;51.992;4.498;2023-01-28T10:00:09;18.33;;;8.20;;
60436;SDS011;46289;51.992;4.498;2023-01-28T10:02:23;22.48;;;8.00;;
60436;SDS011;46289;51.992;4.498;2023-01-28T10:04:47;21.02;;;8.50;;
60436;SDS011;46289;51.992;4.498;2023-01-28T10:07:03;19.20;;;8.52;;
60436;SDS011;46289;51.992;4.498;2023-01-28T10:11:52;18.88;;;7.80;;
60436;SDS011;46289;51.992;4.498;2023-01-28T10:14:02;21.08;;;8.00;;
60436;SDS011;46289;51.992;4.498;2023-01-28T10:16:19;18.85;;;7.28;;
60436;SDS011;46289;51.992;4.498;2023-01-28T10:18:32;22.90;;;7.63;;
60436;SDS011;46289;51.992;4.498;2023-01-28T10:20:40;21.83;;;7.97;;
60436;SDS011;46289;51.992;4.498;2023-01-28T10:22:47;17.60;;;7.28;;
60436;SDS011;46289;51.992;4.498;2023-01-28T10:24:59;19.48;;;7.10;;
60436;SDS011;46289;51.992;4.498;2023-01-28T10:27:09;20.35;;;7.70;;
60436;SDS011;46289;51.992;4.498;2023-01-28T10:29:17;20.65;;;8.63;;
60436;SDS011;46289;51.992;4.498;2023-01-28T10:31:30;18.55;;;7.78;;
60436;SDS011;46289;51.992;4.498;2023-01-28T10:33:38;20.23;;;7.88;;
60436;SDS011;46289;51.992;4.498;2023-01-28T10:35:46;22.77;;;8.65;;
60436;SDS011;46289;51.992;4.498;2023-01-28T10:37:52;18.10;;;7.20;;
60436;SDS011;46289;51.992;4.498;2023-01-28T10:40:06;18.38;;;7.55;;
60436;SDS011;46289;51.992;4.498;2023-01-28T10:43:55;21.05;;;7.30;;
60436;SDS011;46289;51.992;4.498;2023-01-28T10:46:02;17.25;;;7.38;;
60436;SDS011;46289;51.992;4.498;2023-01-28T10:48:13;17.98;;;8.02;;
60436;SDS011;46289;51.992;4.498;2023-01-28T10:50:24;18.87;;;6.80;;
60436;SDS011;46289;51.992;4.498;2023-01-28T10:52:30;19.42;;;8.27;;
60436;SDS011;46289;51.992;4.498;2023-01-28T10:54:36;13.82;;;6.47;;
60436;SDS011;46289;51.992;4.498;2023-01-28T10:56:41;15.70;;;6.22;;
60436;SDS011;46289;51.992;4.498;2023-01-28T10:58:49;21.00;;;8.25;;
60436;SDS011;46289;51.992;4.498;2023-01-28T11:01:02;16.95;;;7.93;;
60436;SDS011;46289;51.992;4.498;2023-01-28T11:03:15;16.38;;;7.18;;
60436;SDS011;46289;51.992;4.498;2023-01-28T11:05:25;19.77;;;7.53;;
60436;SDS011;46289;51.992;4.498;2023-01-28T11:07:31;20.15;;;7.28;;
60436;SDS011;46289;51.992;4.498;2023-01-28T11:09:37;17.30;;;8.13;;
60436;SDS011;46289;51.992;4.498;2023-01-28T11:11:42;16.45;;;7.60;;
60436;SDS011;46289;51.992;4.498;2023-01-28T11:13:48;18.23;;;7.70;;
60436;SDS011;46289;51.992;4.498;2023-01-28T11:15:58;18.60;;;7.20;;
60436;SDS011;46289;51.992;4.498;2023-01-28T11:18:07;18.98;;;7.20;;
60436;SDS011;46289;51.992;4.498;2023-01-28T11:20:25;15.60;;;6.95;;
60436;SDS011;46289;51.992;4.498;2023-01-28T11:22:37;17.77;;;7.20;;
60436;SDS011;46289;51.992;4.498;2023-01-28T11:24:49;17.05;;;7.20;;
60436;SDS011;46289;51.992;4.498;2023-01-28T11:26:55;19.75;;;6.93;;
60436;SDS011;46289;51.992;4.498;2023-01-28T11:29:02;13.85;;;5.93;;
60436;SDS011;46289;51.992;4.498;2023-01-28T11:31:13;19.08;;;6.60;;
60436;SDS011;46289;51.992;4.498;2023-01-28T11:33:21;15.63;;;6.43;;
60436;SDS011;46289;51.992;4.498;2023-01-28T11:35:29;17.85;;;6.90;;
60436;SDS011;46289;51.992;4.498;2023-01-28T11:37:35;12.95;;;5.63;;
60436;SDS011;46289;51.992;4.498;2023-01-28T11:39:41;12.77;;;5.70;;
60436;SDS011;46289;51.992;4.498;2023-01-28T11:41:49;15.25;;;6.05;;
60436;SDS011;46289;51.992;4.498;2023-01-28T11:43:56;18.15;;;6.63;;
60436;SDS011;46289;51.992;4.498;2023-01-28T11:46:07;15.77;;;5.93;;
60436;SDS011;46289;51.992;4.498;2023-01-28T11:48:31;13.25;;;6.18;;
60436;SDS011;46289;51.992;4.498;2023-01-28T11:50:49;13.48;;;5.53;;
60436;SDS011;46289;51.992;4.498;2023-01-28T11:53:05;11.07;;;5.70;;
60436;SDS011;46289;51.992;4.498;2023-01-28T11:55:36;13.00;;;5.50;;
60436;SDS011;46289;51.992;4.498;2023-01-28T11:57:51;14.10;;;6.50;;
60436;SDS011;46289;51.992;4.498;2023-01-28T12:00:15;16.98;;;6.00;;
60436;SDS011;46289;51.992;4.498;2023-01-28T12:02:45;12.13;;;5.35;;
60436;SDS011;46289;51.992;4.498;2023-01-28T12:04:58;14.98;;;6.38;;
60436;SDS011;46289;51.992;4.498;2023-01-28T12:07:24;13.30;;;5.50;;
60436;SDS011;46289;51.992;4.498;2023-01-28T12:09:42;15.13;;;6.55;;
60436;SDS011;46289;51.992;4.498;2023-01-28T12:12:00;12.52;;;4.95;;
60436;SDS011;46289;51.992;4.498;2023-01-28T12:14:18;12.45;;;5.70;;
60436;SDS011;46289;51.992;4.498;2023-01-28T12:16:34;16.02;;;6.32;;
60436;SDS011;46289;51.992;4.498;2023-01-28T12:19:03;12.43;;;6.10;;
60436;SDS011;46289;51.992;4.498;2023-01-28T12:21:26;15.05;;;5.70;;
60436;SDS011;46289;51.992;4.498;2023-01-28T12:23:47;14.57;;;5.95;;
60436;SDS011;46289;51.992;4.498;2023-01-28T12:26:05;13.35;;;5.05;;
60436;SDS011;46289;51.992;4.498;2023-01-28T12:28:21;14.95;;;5.65;;
60436;SDS011;46289;51.992;4.498;2023-01-28T12:30:39;13.45;;;5.80;;
60436;SDS011;46289;51.992;4.498;2023-01-28T12:33:02;13.95;;;5.35;;
60436;SDS011;46289;51.992;4.498;2023-01-28T12:35:24;12.20;;;5.47;;
60436;SDS011;46289;51.992;4.498;2023-01-28T12:37:40;11.48;;;5.45;;
60436;SDS011;46289;51.992;4.498;2023-01-28T12:40:01;13.93;;;5.97;;
60436;SDS011;46289;51.992;4.498;2023-01-28T12:42:22;12.90;;;5.60;;
60436;SDS011;46289;51.992;4.498;2023-01-28T12:44:35;15.85;;;5.60;;
60436;SDS011;46289;51.992;4.498;2023-01-28T12:46:47;14.48;;;6.57;;
60436;SDS011;46289;51.992;4.498;2023-01-28T12:48:58;14.77;;;6.32;;
60436;SDS011;46289;51.992;4.498;2023-01-28T12:51:12;14.05;;;5.72;;
60436;SDS011;46289;51.992;4.498;2023-01-28T12:53:24;13.50;;;7.03;;
60436;SDS011;46289;51.992;4.498;2023-01-28T12:55:37;14.27;;;6.22;;
60436;SDS011;46289;51.992;4.498;2023-01-28T12:57:47;16.55;;;6.88;;
60436;SDS011;46289;51.992;4.498;2023-01-28T12:59:56;13.75;;;6.18;;